Time;durP1;ratioP1;P1;durP2;ratioP2;P2;SDS_P1;SDS_P2;PMS_P1;PMS_P2;Temp;Humidity;BMP_temperature;BMP_pressure;BME280_temperature;BME280_humidity;BME280_pressure;Samples;Min_cycle;Max_cycle;Signal;HPM_P1;HPM_P2
2023/05/24 00:00:11;;;;;;;4.18;2.47;;;;;;;21.28;51.04;96296.84;5044187;28;20051;-33
2023/05/24 00:02:40;;;;;;;3.58;2.10;;;;;;;21.30;50.89;96291.56;5047222;28;20020;-33
2023/05/24 00:05:09;;;;;;;4.10;2.08;;;;;;;21.31;50.50;96291.06;5038982;28;20013;-33
2023/05/24 00:07:38;;;;;;;5.85;2.40;;;;;;;21.26;50.59;96296.59;5029634;28;20028;-33
2023/05/24 00:10:05;;;;;;;4.00;2.45;;;;;;;21.26;50.72;96294.59;5043876;28;20028;-33
2023/05/24 00:12:31;;;;;;;2.95;2.35;;;;;;;21.16;50.75;96291.28;5044774;28;20112;-33
2023/05/24 00:14:56;;;;;;;3.13;2.40;;;;;;;21.22;50.84;96290.56;5035496;28;20040;-33
2023/05/24 00:17:22;;;;;;;2.72;2.17;;;;;;;21.19;50.96;96286.81;5043992;28;20021;-33
2023/05/24 00:19:47;;;;;;;3.30;2.30;;;;;;;21.20;50.88;96290.31;5044184;28;20024;-33
2023/05/24 00:22:13;;;;;;;4.05;2.47;;;;;;;21.21;50.88;96292.56;5036291;28;20025;-33
2023/05/24 00:24:39;;;;;;;2.53;2.10;;;;;;;21.13;51.06;96286.78;5036459;28;20021;-33
2023/05/24 00:27:05;;;;;;;4.35;2.63;;;;;;;21.25;50.91;96286.81;5041190;28;20028;-33
2023/05/24 00:29:31;;;;;;;3.70;2.33;;;;;;;21.17;51.11;96294.78;5038840;28;20075;-33
2023/05/24 00:31:56;;;;;;;4.85;2.53;;;;;;;21.13;51.27;96289.53;5038181;28;20025;-34
2023/05/24 00:34:22;;;;;;;3.70;2.10;;;;;;;21.06;51.52;96294.78;5040358;28;20036;-33
2023/05/24 00:36:47;;;;;;;5.72;2.80;;;;;;;21.12;51.16;96298.31;5036438;28;20115;-34
2023/05/24 00:39:13;;;;;;;3.83;2.50;;;;;;;20.99;51.43;96296.03;5035369;28;20022;-33
2023/05/24 00:41:38;;;;;;;2.28;1.83;;;;;;;20.98;51.79;96293.78;5035364;28;20028;-34
2023/05/24 00:44:03;;;;;;;4.32;2.30;;;;;;;20.97;51.91;96289.50;5036620;28;20461;-33
2023/05/24 00:46:31;;;;;;;6.50;2.78;;;;;;;20.95;51.80;96292.75;5035586;28;20101;-33
2023/05/24 00:48:57;;;;;;;4.82;2.28;;;;;;;21.18;51.16;96293.53;5043599;28;20461;-33
2023/05/24 00:51:26;;;;;;;4.22;2.50;;;;;;;21.18;51.08;96296.28;5043084;28;20541;-33
2023/05/24 00:53:51;;;;;;;6.00;2.65;;;;;;;21.04;51.75;96289.75;5035662;28;20037;-33
2023/05/24 00:56:17;;;;;;;6.18;3.13;;;;;;;20.86;52.38;96286.72;5036312;28;20017;-33
2023/05/24 00:58:44;;;;;;;4.63;2.60;;;;;;;21.08;52.10;96292.28;5041396;28;20032;-33
2023/05/24 01:01:09;;;;;;;4.00;2.47;;;;;;;21.06;52.10;96290.00;5034646;28;20033;-33
2023/05/24 01:03:35;;;;;;;6.30;2.60;;;;;;;21.07;52.01;96288.00;5042521;28;20022;-33
2023/05/24 01:06:03;;;;;;;6.13;2.58;;;;;;;21.03;51.79;96281.97;5042748;28;20021;-33
2023/05/24 01:08:41;;;;;;;4.65;2.50;;;;;;;21.25;51.18;96290.34;5038177;28;20043;-33
2023/05/24 01:11:25;;;;;;;4.10;2.42;;;;;;;21.17;51.79;96284.50;5038760;28;20025;-33
2023/05/24 01:14:06;;;;;;;4.68;2.53;;;;;;;21.02;51.87;96294.25;5029768;28;20381;-33
2023/05/24 01:16:50;;;;;;;4.32;2.60;;;;;;;20.95;52.31;96278.97;5042625;28;20426;-33
2023/05/24 01:19:36;;;;;;;2.97;2.20;;;;;;;20.96;52.13;96290.75;5042380;28;20104;-33
2023/05/24 01:22:21;;;;;;;3.67;2.30;;;;;;;21.05;51.77;96285.75;5030108;28;20470;-33
2023/05/24 01:24:54;;;;;;;5.50;2.60;;;;;;;21.00;51.64;96292.03;5035712;28;20435;-32
2023/05/24 01:27:22;;;;;;;4.40;2.53;;;;;;;21.06;51.30;96290.00;5039571;28;20366;-33
2023/05/24 01:29:52;;;;;;;5.05;2.60;;;;;;;20.90;52.08;96293.50;5035759;28;20100;-33
2023/05/24 01:32:21;;;;;;;3.75;2.67;;;;;;;21.10;51.60;96292.53;5042493;28;20373;-34
2023/05/24 01:34:46;;;;;;;4.88;2.53;;;;;;;21.15;51.67;96286.25;5042259;28;20108;-33
2023/05/24 01:37:12;;;;;;;5.30;2.45;;;;;;;21.00;51.90;96291.28;5034881;28;20022;-32
2023/05/24 01:39:38;;;;;;;3.65;2.63;;;;;;;20.95;51.83;96290.00;5034336;28;20055;-33
2023/05/24 01:42:13;;;;;;;5.68;2.80;;;;;;;20.97;52.08;96293.00;5035315;28;20479;-33
2023/05/24 01:44:54;;;;;;;3.80;2.38;;;;;;;21.09;51.62;96300.06;5035144;28;20029;-33
2023/05/24 01:47:48;;;;;;;4.97;2.60;;;;;;;20.87;52.16;96297.25;5038907;28;20021;-33
2023/05/24 01:50:21;;;;;;;4.10;2.53;;;;;;;21.03;51.78;96293.75;5035802;28;20359;-34
2023/05/24 01:52:50;;;;;;;3.58;2.15;;;;;;;20.94;51.76;96291.25;5034697;28;20042;-33
2023/05/24 01:55:17;;;;;;;4.32;2.42;;;;;;;21.01;51.83;96292.78;5034947;28;20024;-33
2023/05/24 01:57:45;;;;;;;5.32;2.95;;;;;;;20.94;51.79;96287.75;5034674;28;20104;-33
2023/05/24 02:00:14;;;;;;;5.68;2.80;;;;;;;20.95;51.76;96295.50;5034950;28;20021;-33
2023/05/24 02:02:40;;;;;;;4.43;2.50;;;;;;;21.05;51.58;96301.53;5034785;28;20017;-33
2023/05/24 02:05:06;;;;;;;5.25;2.70;;;;;;;21.15;51.46;96297.28;5041349;28;20075;-33
2023/05/24 02:07:31;;;;;;;3.63;2.65;;;;;;;21.10;51.83;96296.03;5042082;28;20104;-33
2023/05/24 02:09:57;;;;;;;3.97;2.38;;;;;;;21.09;51.98;96294.53;5041641;28;20021;-33
2023/05/24 02:12:22;;;;;;;4.65;2.78;;;;;;;20.97;51.83;96289.50;5034986;28;20098;-34
2023/05/24 02:14:49;;;;;;;3.50;2.50;;;;;;;21.02;52.13;96283.97;5034017;28;20357;-33
2023/05/24 02:17:18;;;;;;;3.55;2.58;;;;;;;21.01;51.73;96284.50;5041615;28;20029;-32
2023/05/24 02:19:43;;;;;;;3.92;2.55;;;;;;;21.05;51.49;96282.25;5043854;28;20025;-33
2023/05/24 02:22:08;;;;;;;2.72;2.25;;;;;;;20.91;51.73;96283.22;5038959;28;20027;-33
2023/05/24 02:24:35;;;;;;;3.15;2.47;;;;;;;21.01;51.30;96285.25;5034500;28;20028;-33
2023/05/24 02:27:01;;;;;;;3.95;2.80;;;;;;;21.06;51.35;96284.50;5038852;28;20112;-33
2023/05/24 02:29:26;;;;;;;3.50;2.33;;;;;;;21.05;51.22;96283.00;5037034;28;20533;-32
2023/05/24 02:31:55;;;;;;;5.82;2.80;;;;;;;20.94;51.33;96273.94;5034474;28;20031;-33
2023/05/24 02:34:23;;;;;;;4.22;2.70;;;;;;;21.12;51.37;96273.50;5041026;28;20026;-33
2023/05/24 02:36:49;;;;;;;4.72;2.53;;;;;;;20.88;51.92;96273.22;5041352;28;20053;-32
2023/05/24 02:39:15;;;;;;;4.38;2.47;;;;;;;20.79;51.77;96271.41;5033858;28;20025;-33
2023/05/24 02:41:41;;;;;;;3.40;2.47;;;;;;;20.99;50.83;96268.47;5033961;28;20440;-34
2023/05/24 02:44:06;;;;;;;4.38;2.30;;;;;;;20.92;51.34;96265.44;5040865;28;20024;-33
2023/05/24 02:46:32;;;;;;;4.85;2.28;;;;;;;20.92;51.11;96273.69;5041193;28;20021;-33
2023/05/24 02:48:58;;;;;;;3.25;2.90;;;;;;;20.94;51.26;96271.94;5034799;28;20429;-32
2023/05/24 02:51:23;;;;;;;4.60;2.10;;;;;;;20.66;52.10;96268.38;5047278;28;20126;-33
2023/05/24 02:53:49;;;;;;;5.47;2.83;;;;;;;20.85;51.50;96274.94;5040506;28;20099;-33
2023/05/24 02:56:16;;;;;;;4.55;3.10;;;;;;;20.89;51.10;96272.72;5033696;28;20109;-33
2023/05/24 02:58:43;;;;;;;3.22;2.40;;;;;;;20.94;51.13;96273.94;5033562;28;20021;-33
2023/05/24 03:01:15;;;;;;;4.82;2.42;;;;;;;20.87;51.30;96264.19;5032783;28;20028;-33
2023/05/24 03:03:40;;;;;;;3.70;2.10;;;;;;;20.73;51.89;96265.91;5032715;28;20026;-33
2023/05/24 03:06:06;;;;;;;4.40;2.53;;;;;;;20.85;51.52;96269.44;5040620;28;20385;-33
2023/05/24 03:08:33;;;;;;;3.28;2.42;;;;;;;20.95;51.22;96273.47;5033634;28;20029;-33
2023/05/24 03:10:58;;;;;;;5.78;2.20;;;;;;;20.92;51.22;96263.44;5033896;28;20053;-34
2023/05/24 03:13:24;;;;;;;4.60;2.50;;;;;;;20.78;51.50;96269.91;5033795;28;20457;-34
2023/05/24 03:15:49;;;;;;;6.15;2.65;;;;;;;20.78;51.40;96280.94;5033486;28;20067;-33
2023/05/24 03:18:15;;;;;;;3.45;1.95;;;;;;;20.77;51.30;96282.94;5033585;28;20056;-33
2023/05/24 03:20:40;;;;;;;4.68;2.45;;;;;;;20.75;51.57;96277.19;5033659;28;20021;-33
2023/05/24 03:23:06;;;;;;;3.83;1.98;;;;;;;20.87;51.30;96286.22;5040551;28;20029;-34
2023/05/24 03:25:31;;;;;;;3.30;2.13;;;;;;;20.71;51.72;96282.19;5040710;28;20139;-33
2023/05/24 03:27:57;;;;;;;3.38;2.22;;;;;;;20.74;51.66;96285.94;5038813;28;20025;-33
2023/05/24 03:30:22;;;;;;;4.22;2.13;;;;;;;20.50;51.85;96289.13;5033192;28;20412;-33
2023/05/24 03:32:48;;;;;;;7.05;2.65;;;;;;;20.66;51.44;96287.66;5040526;28;20106;-33
2023/05/24 03:35:13;;;;;;;3.47;2.17;;;;;;;20.73;51.51;96295.47;5033589;28;20017;-33
2023/05/24 03:37:39;;;;;;;5.68;2.65;;;;;;;20.61;51.96;96293.94;5033502;28;20025;-34
2023/05/24 03:40:05;;;;;;;3.08;2.22;;;;;;;20.71;51.38;96292.44;5040617;28;20451;-33
2023/05/24 03:42:31;;;;;;;5.20;2.78;;;;;;;20.67;52.15;96287.16;5040895;28;20339;-34
2023/05/24 03:44:56;;;;;;;4.18;2.58;;;;;;;20.65;52.36;96289.66;5032966;28;20048;-34
2023/05/24 03:47:22;;;;;;;4.05;2.38;;;;;;;20.52;52.20;96294.91;5033189;28;20021;-34
2023/05/24 03:49:47;;;;;;;6.88;2.22;;;;;;;20.60;52.10;96297.94;5032480;28;20108;-34
2023/05/24 03:52:13;;;;;;;4.32;2.28;;;;;;;20.64;51.94;96295.69;5040816;28;20029;-33
2023/05/24 03:54:39;;;;;;;3.65;2.60;;;;;;;20.65;51.86;96289.66;5038592;28;20021;-36
2023/05/24 03:57:04;;;;;;;5.90;2.25;;;;;;;20.64;51.68;96298.44;5035367;28;20095;-35
2023/05/24 03:59:30;;;;;;;6.22;2.75;;;;;;;20.71;51.46;96297.97;5040076;28;20373;-33
2023/05/24 04:01:55;;;;;;;3.28;2.70;;;;;;;20.82;51.34;96295.22;5033246;28;20018;-33
2023/05/24 04:04:21;;;;;;;4.63;2.33;;;;;;;20.72;51.63;96285.69;5032125;28;20057;-33
2023/05/24 04:06:46;;;;;;;5.60;2.65;;;;;;;20.68;52.03;96290.69;5033333;28;20032;-33
2023/05/24 04:09:12;;;;;;;3.25;2.60;;;;;;;20.64;52.11;96285.44;5040516;28;20029;-33
2023/05/24 04:11:37;;;;;;;4.85;2.42;;;;;;;20.62;52.27;96293.44;5032659;28;20026;-33
2023/05/24 04:14:03;;;;;;;4.80;2.50;;;;;;;20.73;52.10;96300.97;5040764;28;20063;-33
2023/05/24 04:16:32;;;;;;;3.92;2.20;;;;;;;20.76;52.01;96289.72;5037783;28;20109;-33
2023/05/24 04:18:59;;;;;;;5.35;2.13;;;;;;;20.66;52.33;96295.94;5035734;28;20120;-34
2023/05/24 04:21:25;;;;;;;6.63;2.35;;;;;;;20.70;51.90;96310.22;5035512;28;20025;-34
2023/05/24 04:23:51;;;;;;;5.30;2.47;;;;;;;20.59;52.49;96310.19;5035458;28;20075;-34
2023/05/24 04:26:16;;;;;;;2.90;2.33;;;;;;;20.54;52.36;96300.66;5036457;28;20030;-34
2023/05/24 04:28:42;;;;;;;4.72;2.20;;;;;;;20.75;51.75;96302.00;5042257;28;20059;-34
2023/05/24 04:31:08;;;;;;;6.25;3.50;;;;;;;20.75;52.30;96304.00;5043507;28;20106;-34
2023/05/24 04:33:34;;;;;;;5.85;3.22;;;;;;;20.71;52.53;96312.50;5043061;28;20532;-34
2023/05/24 04:36:03;;;;;;;5.03;3.17;;;;;;;20.75;52.52;96309.50;5036437;28;20152;-34
2023/05/24 04:38:31;;;;;;;7.25;3.08;;;;;;;20.83;52.53;96304.25;5036455;28;20557;-36
2023/05/24 04:40:56;;;;;;;4.72;2.85;;;;;;;20.78;52.45;96295.47;5036425;28;20086;-34
2023/05/24 04:43:25;;;;;;;4.93;3.92;;;;;;;20.73;52.68;96296.22;5040732;28;20497;-34
2023/05/24 04:45:50;;;;;;;5.03;3.08;;;;;;;20.64;53.12;96301.22;5038121;28;20025;-34
2023/05/24 04:48:16;;;;;;;3.70;2.78;;;;;;;20.76;52.73;96295.22;5042963;28;20025;-34
2023/05/24 04:50:41;;;;;;;4.43;3.10;;;;;;;20.83;52.83;96298.75;5042136;28;20453;-34
2023/05/24 04:53:07;;;;;;;5.32;2.97;;;;;;;20.89;52.57;96297.53;5036643;28;20041;-34
2023/05/24 04:55:32;;;;;;;5.30;2.85;;;;;;;20.69;53.29;96309.47;5036940;28;20071;-34
2023/05/24 04:57:58;;;;;;;7.85;3.35;;;;;;;20.94;52.61;96301.53;5035744;28;20045;-34
2023/05/24 05:00:23;;;;;;;3.75;2.75;;;;;;;20.72;53.12;96311.25;5045386;28;20027;-34
2023/05/24 05:02:49;;;;;;;4.40;2.97;;;;;;;20.84;52.70;96308.53;5045902;28;20051;-34
2023/05/24 05:05:15;;;;;;;4.45;2.97;;;;;;;20.82;52.79;96305.50;5036813;28;20385;-36
2023/05/24 05:07:40;;;;;;;5.10;3.05;;;;;;;20.98;52.21;96311.06;5035666;28;20027;-34
2023/05/24 05:10:06;;;;;;;7.50;3.72;;;;;;;20.93;51.94;96303.53;5035504;28;20427;-34
2023/05/24 05:12:32;;;;;;;4.70;2.80;;;;;;;20.91;52.38;96314.28;5035862;28;20024;-34
2023/05/24 05:14:57;;;;;;;5.60;2.95;;;;;;;20.88;52.33;96312.56;5034336;28;20017;-34
2023/05/24 05:17:22;;;;;;;7.00;3.38;;;;;;;20.90;52.22;96310.03;5042999;28;20056;-35
2023/05/24 05:19:48;;;;;;;5.75;3.45;;;;;;;20.91;52.45;96317.06;5034314;28;20017;-35
2023/05/24 05:22:14;;;;;;;4.28;3.13;;;;;;;20.88;52.79;96311.78;5035618;28;20483;-34
2023/05/24 05:24:39;;;;;;;3.33;3.00;;;;;;;20.92;52.74;96318.56;5035095;28;20499;-34
2023/05/24 05:27:05;;;;;;;3.70;2.78;;;;;;;20.97;52.78;96308.81;5040106;28;20013;-36
2023/05/24 05:29:30;;;;;;;3.30;2.60;;;;;;;20.98;52.77;96310.31;5044721;28;20028;-34
2023/05/24 05:31:56;;;;;;;6.55;2.80;;;;;;;20.92;52.86;96309.53;5034920;28;20385;-35
2023/05/24 05:34:21;;;;;;;5.10;2.67;;;;;;;20.95;53.04;96319.56;5035264;28;20026;-35
2023/05/24 05:36:47;;;;;;;6.03;2.88;;;;;;;20.92;52.99;96326.06;5042673;28;20499;-34
2023/05/24 05:39:13;;;;;;;3.95;2.65;;;;;;;20.92;53.17;96318.56;5035014;28;20039;-34
2023/05/24 05:41:42;;;;;;;4.18;2.72;;;;;;;21.06;52.82;96323.09;5034978;28;20028;-34
2023/05/24 05:44:08;;;;;;;4.53;2.67;;;;;;;20.84;53.29;96328.56;5041989;28;20045;-34
2023/05/24 05:46:34;;;;;;;4.85;2.40;;;;;;;20.77;53.55;96329.06;5042258;28;20110;-34
2023/05/24 05:48:59;;;;;;;7.22;2.92;;;;;;;20.85;53.55;96330.06;5042356;28;20025;-35
2023/05/24 05:51:25;;;;;;;8.45;2.65;;;;;;;20.89;53.50;96335.34;5041835;28;20033;-35
2023/05/24 05:53:51;;;;;;;4.63;2.50;;;;;;;20.87;53.54;96340.59;5034339;28;20099;-35
2023/05/24 05:56:16;;;;;;;4.15;2.50;;;;;;;20.79;54.01;96334.81;5035206;28;20392;-34
2023/05/24 05:58:42;;;;;;;5.88;2.80;;;;;;;20.99;53.54;96348.41;5034731;28;20060;-34
2023/05/24 06:01:07;;;;;;;6.63;2.70;;;;;;;21.04;53.31;96341.41;5034820;28;20021;-35
2023/05/24 06:03:33;;;;;;;6.65;2.67;;;;;;;21.08;53.49;96336.41;5040988;28;20025;-34
2023/05/24 06:05:58;;;;;;;6.40;4.28;;;;;;;20.97;53.76;96337.13;5041840;28;20014;-34
2023/05/24 06:08:24;;;;;;;7.20;4.78;;;;;;;21.10;53.46;96334.66;5035273;28;20022;-34
2023/05/24 06:10:49;;;;;;;5.07;3.38;;;;;;;21.10;53.35;96333.91;5038640;28;20025;-34
2023/05/24 06:13:15;;;;;;;5.85;3.55;;;;;;;20.99;54.14;96336.63;5032933;28;20385;-35
2023/05/24 06:15:40;;;;;;;7.60;3.00;;;;;;;20.94;54.09;96337.34;5034707;28;20025;-34
2023/05/24 06:18:06;;;;;;;7.03;3.40;;;;;;;21.13;53.69;96341.19;5039284;28;20037;-34
2023/05/24 06:20:31;;;;;;;4.85;2.92;;;;;;;20.82;55.09;96339.34;5035969;28;20025;-35
2023/05/24 06:22:56;;;;;;;7.10;2.97;;;;;;;21.10;53.83;96337.41;5040789;28;20025;-35
2023/05/24 06:25:23;;;;;;;5.30;2.72;;;;;;;21.08;53.72;96342.66;5034062;28;20026;-36
2023/05/24 06:27:50;;;;;;;6.35;2.35;;;;;;;21.17;53.82;96338.91;5042092;28;20051;-34
2023/05/24 06:30:16;;;;;;;4.93;3.10;;;;;;;21.13;53.97;96341.94;5034077;28;20025;-34
2023/05/24 06:32:41;;;;;;;7.03;2.95;;;;;;;21.17;53.78;96338.91;5041008;28;20029;-34
2023/05/24 06:35:07;;;;;;;4.10;2.97;;;;;;;21.08;54.60;96342.66;5041167;28;20089;-34
2023/05/24 06:37:33;;;;;;;4.13;3.25;;;;;;;21.13;54.19;96341.19;5040445;28;20063;-34
2023/05/24 06:39:58;;;;;;;5.20;2.97;;;;;;;21.19;54.44;96335.69;5033928;28;20062;-34
2023/05/24 06:42:24;;;;;;;4.20;2.75;;;;;;;21.07;54.90;96343.16;5033914;28;20071;-34
2023/05/24 06:44:49;;;;;;;5.18;3.53;;;;;;;21.17;54.73;96336.16;5034257;28;20029;-35
2023/05/24 06:47:14;;;;;;;6.45;3.55;;;;;;;21.27;54.41;96342.97;5037123;28;20031;-35
2023/05/24 06:49:40;;;;;;;8.25;3.40;;;;;;;21.28;54.22;96343.72;5033071;28;20032;-35
2023/05/24 06:52:07;;;;;;;5.30;2.80;;;;;;;21.30;54.08;96350.25;5034022;28;20128;-35
2023/05/24 06:54:32;;;;;;;8.40;3.17;;;;;;;21.09;55.02;96340.66;5033751;28;20021;-35
2023/05/24 06:56:59;;;;;;;10.93;3.20;;;;;;;20.98;55.43;96349.66;5032467;28;20041;-35
2023/05/24 06:59:26;;;;;;;6.40;3.00;;;;;;;21.14;54.74;96351.69;5034106;28;20373;-35
2023/05/24 07:01:56;;;;;;;5.28;3.00;;;;;;;21.25;54.42;96353.00;5033626;28;20021;-34
2023/05/24 07:04:23;;;;;;;5.88;3.40;;;;;;;21.24;54.26;96357.03;5041319;28;20107;-34
2023/05/24 07:06:49;;;;;;;5.10;3.28;;;;;;;21.28;54.11;96352.00;5038551;28;20028;-34
2023/05/24 07:09:14;;;;;;;5.85;2.78;;;;;;;21.28;54.53;96350.00;5041746;28;20020;-34
2023/05/24 07:11:40;;;;;;;4.50;3.20;;;;;;;21.21;54.95;96349.75;5033538;28;20378;-34
2023/05/24 07:14:05;;;;;;;4.50;3.10;;;;;;;21.26;54.51;96346.25;5032721;28;20029;-35
2023/05/24 07:16:31;;;;;;;3.63;2.70;;;;;;;21.29;54.67;96350.75;5033738;28;20025;-36
2023/05/24 07:18:57;;;;;;;8.75;3.00;;;;;;;21.31;55.18;96354.50;5033720;28;20469;-34
2023/05/24 07:21:22;;;;;;;5.22;2.70;;;;;;;21.07;56.10;96343.16;5040649;28;20025;-34
2023/05/24 07:23:50;;;;;;;3.17;2.75;;;;;;;21.28;54.96;96349.25;5036292;28;20017;-34
2023/05/24 07:26:16;;;;;;;5.68;2.83;;;;;;;21.30;55.00;96346.75;5039727;28;20388;-34
2023/05/24 07:28:41;;;;;;;5.30;2.47;;;;;;;21.39;55.25;96352.75;5041864;28;20082;-35
2023/05/24 07:31:08;;;;;;;4.53;2.65;;;;;;;21.47;54.94;96351.03;5033460;28;20028;-35
2023/05/24 07:33:39;;;;;;;4.47;2.90;;;;;;;21.42;55.17;96348.25;5039616;28;20033;-34
2023/05/24 07:36:05;;;;;;;4.57;2.95;;;;;;;21.41;55.52;96344.75;5029807;28;20032;-34
2023/05/24 07:38:31;;;;;;;5.95;2.55;;;;;;;21.44;55.67;96348.50;5036944;28;20029;-35
2023/05/24 07:41:00;;;;;;;5.57;2.95;;;;;;;21.46;55.33;96349.53;5040787;28;20163;-35
2023/05/24 07:43:26;;;;;;;5.13;3.10;;;;;;;21.68;54.77;96348.03;5040544;28;20112;-35
2023/05/24 07:45:52;;;;;;;6.97;3.10;;;;;;;21.58;55.45;96344.75;5040313;28;20151;-35
2023/05/24 07:48:19;;;;;;;9.27;3.90;;;;;;;21.57;55.31;96339.75;5042357;28;20474;-34
2023/05/24 07:50:47;;;;;;;5.95;3.10;;;;;;;21.51;55.45;96340.47;5036846;28;20025;-34
2023/05/24 07:53:15;;;;;;;6.93;3.53;;;;;;;21.49;55.81;96342.25;5037520;28;20052;-34
2023/05/24 07:55:41;;;;;;;5.95;3.30;;;;;;;21.40;56.09;96334.97;5037030;28;20049;-34
2023/05/24 07:58:06;;;;;;;6.57;3.60;;;;;;;21.58;55.49;96344.75;5037687;28;20051;-34
2023/05/24 08:00:32;;;;;;;15.45;4.80;;;;;;;21.56;56.00;96352.03;5043539;28;20020;-34
2023/05/24 08:03:02;;;;;;;13.40;4.05;;;;;;;21.58;56.03;96342.00;5043931;28;20087;-35
2023/05/24 08:05:27;;;;;;;5.45;3.55;;;;;;;21.47;56.54;96339.25;5044567;28;20092;-34
2023/05/24 08:07:53;;;;;;;5.55;3.30;;;;;;;21.62;56.22;96345.28;5035016;28;20133;-35
2023/05/24 08:10:19;;;;;;;6.18;3.35;;;;;;;21.58;56.33;96342.00;5036811;28;20025;-34
2023/05/24 08:12:44;;;;;;;6.60;3.35;;;;;;;21.52;56.42;96346.75;5036665;28;20032;-34
2023/05/24 08:15:10;;;;;;;7.20;3.00;;;;;;;21.55;56.29;96345.75;5036513;28;20103;-35
2023/05/24 08:17:37;;;;;;;5.85;3.40;;;;;;;21.51;56.55;96345.28;5036951;28;20021;-34
2023/05/24 08:20:08;;;;;;;10.23;3.28;;;;;;;21.51;56.75;96348.75;5036292;28;20021;-34
2023/05/24 08:22:34;;;;;;;13.02;4.13;;;;;;;21.53;56.80;96339.97;5043869;28;20432;-34
2023/05/24 08:24:59;;;;;;;12.55;4.72;;;;;;;21.56;56.53;96346.50;5043569;28;20067;-34
2023/05/24 08:27:27;;;;;;;14.35;4.15;;;;;;;21.64;56.61;96347.50;5035836;28;20025;-34
2023/05/24 08:29:53;;;;;;;5.65;3.33;;;;;;;21.63;56.36;96346.03;5044181;28;20024;-34
2023/05/24 08:32:19;;;;;;;6.10;3.20;;;;;;;21.69;55.93;96346.78;5046376;28;20021;-35
2023/05/24 08:34:45;;;;;;;6.25;3.47;;;;;;;21.61;56.74;96354.81;5037843;28;20029;-34
2023/05/24 08:37:12;;;;;;;4.63;3.00;;;;;;;21.56;56.91;96344.50;5036178;28;20463;-35
2023/05/24 08:39:37;;;;;;;3.97;3.38;;;;;;;21.61;57.03;96352.03;5036196;28;20025;-35
2023/05/24 08:42:05;;;;;;;6.25;3.40;;;;;;;21.68;57.08;96359.81;5036720;28;20028;-34
2023/05/24 08:44:38;;;;;;;6.05;3.08;;;;;;;21.68;57.35;96357.06;5036248;28;20030;-35
2023/05/24 08:47:04;;;;;;;4.28;2.95;;;;;;;21.77;56.06;96356.78;5042881;28;20033;-36
2023/05/24 08:49:29;;;;;;;4.57;3.13;;;;;;;21.54;57.18;96355.28;5041106;28;20094;-35
2023/05/24 08:51:56;;;;;;;5.45;3.13;;;;;;;21.70;57.07;96362.06;5035384;28;20481;-34
2023/05/24 08:54:22;;;;;;;3.30;3.00;;;;;;;21.57;57.40;96359.81;5028677;28;20051;-34
2023/05/24 08:56:48;;;;;;;4.18;3.25;;;;;;;21.76;57.26;96355.28;5035763;28;20440;-35
2023/05/24 08:59:14;;;;;;;4.53;3.40;;;;;;;21.64;57.13;96351.03;5035398;28;20025;-35
2023/05/24 09:01:40;;;;;;;5.20;3.20;;;;;;;21.74;56.97;96357.06;5035679;28;20048;-34
2023/05/24 09:04:07;;;;;;;5.70;3.55;;;;;;;21.70;56.72;96351.03;5035052;28;20021;-34
2023/05/24 09:06:35;;;;;;;3.58;2.78;;;;;;;21.76;56.76;96349.03;5042789;28;20025;-35
2023/05/24 09:09:02;;;;;;;4.82;3.25;;;;;;;21.72;56.78;96352.03;5035297;28;20017;-35
2023/05/24 09:11:31;;;;;;;4.38;3.10;;;;;;;21.76;56.79;96360.81;5036446;28;20029;-34
2023/05/24 09:13:57;;;;;;;5.40;3.78;;;;;;;21.80;56.42;96355.78;5045561;28;20025;-35
2023/05/24 09:16:22;;;;;;;8.15;4.45;;;;;;;21.78;56.65;96350.03;5044792;28;20041;-35
2023/05/24 09:18:48;;;;;;;10.02;3.60;;;;;;;21.82;56.70;96353.28;5035676;28;20021;-34
2023/05/24 09:21:14;;;;;;;7.20;3.40;;;;;;;21.84;56.72;96350.78;5035113;28;20021;-34
2023/05/24 09:23:40;;;;;;;7.95;3.63;;;;;;;21.81;56.52;96359.31;5035851;28;20032;-34
2023/05/24 09:26:07;;;;;;;4.53;3.35;;;;;;;21.84;55.97;96355.56;5035292;28;20048;-34
2023/05/24 09:28:32;;;;;;;6.18;3.17;;;;;;;21.78;55.98;96358.31;5035732;28;20488;-35
2023/05/24 09:31:03;;;;;;;6.38;3.80;;;;;;;21.81;55.92;96348.28;5038491;28;20465;-34
2023/05/24 09:33:31;;;;;;;7.05;4.35;;;;;;;21.86;56.30;96348.28;5044133;28;20469;-35
2023/05/24 09:36:01;;;;;;;6.18;3.35;;;;;;;21.82;56.28;96347.00;5035534;28;20025;-34
2023/05/24 09:38:28;;;;;;;7.18;3.70;;;;;;;21.81;56.11;96345.50;5042517;28;20401;-35
2023/05/24 09:41:05;;;;;;;5.25;3.67;;;;;;;21.92;56.27;96355.78;5039429;28;20025;-34
2023/05/24 09:43:33;;;;;;;7.82;3.28;;;;;;;21.91;55.97;96351.53;5034979;28;20380;-35
2023/05/24 09:46:02;;;;;;;6.50;3.72;;;;;;;21.93;55.96;96354.53;5042654;28;20021;-34
2023/05/24 09:48:28;;;;;;;6.45;4.20;;;;;;;21.93;56.36;96357.28;5040512;28;20022;-35
2023/05/24 09:51:04;;;;;;;7.32;3.88;;;;;;;21.93;56.20;96346.25;5042695;28;20489;-34
2023/05/24 09:53:32;;;;;;;5.97;3.60;;;;;;;21.93;56.00;96351.78;5028949;28;20128;-36
2023/05/24 09:55:59;;;;;;;5.10;3.30;;;;;;;22.01;55.30;96348.03;5034446;28;20021;-34
2023/05/24 09:58:31;;;;;;;6.70;3.95;;;;;;;21.90;55.43;96352.78;5027794;28;20372;-34
2023/05/24 10:01:09;;;;;;;3.78;3.15;;;;;;;21.94;55.21;96345.00;5042184;28;20104;-34
2023/05/24 10:03:36;;;;;;;4.32;3.28;;;;;;;21.99;55.21;96344.28;5034906;28;20021;-34
2023/05/24 10:06:05;;;;;;;6.22;3.78;;;;;;;21.96;55.11;96340.47;5034742;28;20022;-35
2023/05/24 10:08:33;;;;;;;7.70;3.45;;;;;;;22.03;54.77;96339.22;5043304;28;20048;-35
2023/05/24 10:11:02;;;;;;;5.93;3.42;;;;;;;22.02;54.47;96337.72;5038182;28;20104;-34
2023/05/24 10:13:27;;;;;;;5.32;3.75;;;;;;;21.98;54.83;96334.47;5035737;28;20474;-35
2023/05/24 10:15:53;;;;;;;7.10;3.20;;;;;;;22.12;54.68;96348.03;5040304;28;20103;-35
2023/05/24 10:18:19;;;;;;;7.95;3.80;;;;;;;22.05;54.53;96339.47;5034377;28;20025;-35
2023/05/24 10:20:44;;;;;;;4.70;3.35;;;;;;;22.03;54.47;96336.47;5040724;28;20025;-35
2023/05/24 10:23:15;;;;;;;6.57;4.18;;;;;;;22.09;54.53;96340.00;5041744;28;20371;-34
2023/05/24 10:25:49;;;;;;;5.60;3.65;;;;;;;22.15;54.23;96335.19;5041668;28;20087;-34
2023/05/24 10:28:17;;;;;;;4.15;3.70;;;;;;;22.19;54.34;96335.69;5039978;28;20025;-36
2023/05/24 10:31:03;;;;;;;4.63;3.53;;;;;;;22.13;54.45;96334.97;5035137;28;20029;-35
2023/05/24 10:33:31;;;;;;;6.38;3.85;;;;;;;22.19;53.70;96333.69;5040837;28;20029;-35
2023/05/24 10:35:57;;;;;;;6.65;4.10;;;;;;;22.25;53.79;96330.16;5034271;28;20078;-35
2023/05/24 10:38:23;;;;;;;9.88;6.28;;;;;;;22.17;53.71;96324.41;5033592;28;20025;-34
2023/05/24 10:40:49;;;;;;;6.63;5.55;;;;;;;22.28;54.38;96318.84;5034199;28;20465;-34
2023/05/24 10:43:16;;;;;;;7.70;4.30;;;;;;;22.32;54.62;96319.34;5034153;28;20155;-34
2023/05/24 10:45:50;;;;;;;7.10;4.40;;;;;;;22.25;54.94;96317.13;5033656;28;20067;-35
2023/05/24 10:48:16;;;;;;;14.98;6.63;;;;;;;22.16;55.64;96309.09;5033882;28;20160;-34
2023/05/24 10:50:42;;;;;;;10.63;5.22;;;;;;;22.22;55.43;96323.66;5033826;28;20505;-35
2023/05/24 10:53:13;;;;;;;10.18;5.50;;;;;;;22.22;55.60;96312.59;5033106;28;20037;-36
2023/05/24 10:55:54;;;;;;;8.77;4.85;;;;;;;22.23;55.44;96294.75;5030764;28;20024;-35
2023/05/24 10:58:26;;;;;;;8.80;4.53;;;;;;;22.20;55.56;96301.28;5033858;28;20025;-34
2023/05/24 11:00:52;;;;;;;6.10;4.30;;;;;;;22.32;55.25;96300.00;5033762;28;20028;-35
2023/05/24 11:03:22;;;;;;;5.72;3.95;;;;;;;22.26;55.33;96296.50;5033729;28;20029;-34
2023/05/24 11:05:50;;;;;;;8.48;4.80;;;;;;;22.25;54.82;96294.25;5033630;28;20453;-35
2023/05/24 11:08:30;;;;;;;6.85;3.80;;;;;;;22.28;55.29;96305.03;5034492;28;20029;-35
2023/05/24 11:11:15;;;;;;;6.60;4.00;;;;;;;22.21;54.48;96294.50;5038189;28;20018;-35
2023/05/24 11:13:40;;;;;;;6.03;3.78;;;;;;;22.12;54.49;96303.09;5034313;28;20039;-34
2023/05/24 11:16:06;;;;;;;8.55;3.95;;;;;;;22.22;54.12;96290.50;5039801;28;20465;-35
2023/05/24 11:18:37;;;;;;;6.10;3.67;;;;;;;22.28;54.08;96288.44;5035381;28;20152;-35
2023/05/24 11:21:05;;;;;;;7.57;3.97;;;;;;;22.30;53.86;96291.47;5038889;28;20469;-34
2023/05/24 11:23:31;;;;;;;6.30;3.85;;;;;;;22.23;54.37;96291.25;5043907;28;20044;-35
2023/05/24 11:25:57;;;;;;;8.05;3.95;;;;;;;22.30;54.23;96291.47;5037706;28;20515;-35
2023/05/24 11:28:23;;;;;;;6.47;4.05;;;;;;;22.32;54.68;96288.94;5037584;28;20068;-35
2023/05/24 11:30:49;;;;;;;7.53;3.90;;;;;;;22.29;55.10;96278.91;5037367;28;20025;-35
2023/05/24 11:33:21;;;;;;;5.15;3.83;;;;;;;22.34;54.96;96289.19;5044506;28;20076;-34